sensor_id;sensor_type;location;lat;lon;timestamp;pressure;altitude;pressure_sealevel;temperature
73894;BMP280;62699;50.534;12.784;2023-06-14T00:01:20;96253.69;;;10.63
73894;BMP280;62699;50.534;12.784;2023-06-14T00:06:22;96255.91;;;10.53
73894;BMP280;62699;50.534;12.784;2023-06-14T00:11:24;96252.03;;;10.43
73894;BMP280;62699;50.534;12.784;2023-06-14T00:16:26;96240.56;;;10.32
73894;BMP280;62699;50.534;12.784;2023-06-14T00:21:27;96255.22;;;10.25
73894;BMP280;62699;50.534;12.784;2023-06-14T00:26:28;96264.53;;;10.13
73894;BMP280;62699;50.534;12.784;2023-06-14T00:31:28;96258.94;;;10.05
73894;BMP280;62699;50.534;12.784;2023-06-14T00:36:29;96263.06;;;9.95
73894;BMP280;62699;50.534;12.784;2023-06-14T00:41:29;96249.84;;;9.97
73894;BMP280;62699;50.534;12.784;2023-06-14T00:46:29;96250.84;;;9.94
73894;BMP280;62699;50.534;12.784;2023-06-14T00:51:30;96248.41;;;9.85
73894;BMP280;62699;50.534;12.784;2023-06-14T00:56:30;96253.03;;;9.79
73894;BMP280;62699;50.534;12.784;2023-06-14T01:01:30;96252.78;;;9.72
73894;BMP280;62699;50.534;12.784;2023-06-14T01:06:57;96245.19;;;9.59
73894;BMP280;62699;50.534;12.784;2023-06-14T01:12:11;96255.91;;;9.48
73894;BMP280;62699;50.534;12.784;2023-06-14T01:17:14;96253.94;;;9.43
73894;BMP280;62699;50.534;12.784;2023-06-14T01:22:17;96254.41;;;9.47
73894;BMP280;62699;50.534;12.784;2023-06-14T01:27:17;96257.84;;;9.42
73894;BMP280;62699;50.534;12.784;2023-06-14T01:32:19;96255.59;;;9.29
73894;BMP280;62699;50.534;12.784;2023-06-14T01:37:21;96256.28;;;9.18
73894;BMP280;62699;50.534;12.784;2023-06-14T01:42:22;96255.28;;;9.10
73894;BMP280;62699;50.534;12.784;2023-06-14T01:47:23;96255.28;;;8.99
73894;BMP280;62699;50.534;12.784;2023-06-14T01:52:24;96249.59;;;8.92
73894;BMP280;62699;50.534;12.784;2023-06-14T01:57:25;96248.09;;;8.79
73894;BMP280;62699;50.534;12.784;2023-06-14T02:02:26;96253.44;;;8.74
73894;BMP280;62699;50.534;12.784;2023-06-14T02:07:27;96248.97;;;8.65
73894;BMP280;62699;50.534;12.784;2023-06-14T02:12:28;96246.66;;;8.42
73894;BMP280;62699;50.534;12.784;2023-06-14T02:17:28;96237.09;;;8.35
73894;BMP280;62699;50.534;12.784;2023-06-14T02:22:30;96229.53;;;8.33
73894;BMP280;62699;50.534;12.784;2023-06-14T02:27:32;96227.97;;;8.21
73894;BMP280;62699;50.534;12.784;2023-06-14T02:32:34;96246.75;;;8.21
73894;BMP280;62699;50.534;12.784;2023-06-14T02:37:35;96251.84;;;8.19
73894;BMP280;62699;50.534;12.784;2023-06-14T02:42:35;96252.81;;;8.16
73894;BMP280;62699;50.534;12.784;2023-06-14T02:47:36;96260.38;;;8.18
73894;BMP280;62699;50.534;12.784;2023-06-14T02:52:36;96253.22;;;8.09
73894;BMP280;62699;50.534;12.784;2023-06-14T02:57:36;96265.19;;;8.08
73894;BMP280;62699;50.534;12.784;2023-06-14T03:02:37;96255.44;;;8.11
73894;BMP280;62699;50.534;12.784;2023-06-14T03:07:37;96254.94;;;8.07
73894;BMP280;62699;50.534;12.784;2023-06-14T03:12:41;96261.03;;;8.07
73894;BMP280;62699;50.534;12.784;2023-06-14T03:17:41;96263.44;;;8.05
73894;BMP280;62699;50.534;12.784;2023-06-14T03:22:46;96265.13;;;8.03
73894;BMP280;62699;50.534;12.784;2023-06-14T03:27:47;96268.78;;;8.05
73894;BMP280;62699;50.534;12.784;2023-06-14T03:32:48;96268.50;;;7.98
73894;BMP280;62699;50.534;12.784;2023-06-14T03:37:48;96279.00;;;8.01
73894;BMP280;62699;50.534;12.784;2023-06-14T03:42:48;96283.63;;;8.01
73894;BMP280;62699;50.534;12.784;2023-06-14T03:47:48;96291.22;;;8.02
73894;BMP280;62699;50.534;12.784;2023-06-14T03:52:48;96293.75;;;8.17
73894;BMP280;62699;50.534;12.784;2023-06-14T03:57:51;96294.84;;;8.30
73894;BMP280;62699;50.534;12.784;2023-06-14T04:02:52;96300.06;;;8.45
73894;BMP280;62699;50.534;12.784;2023-06-14T04:07:53;96307.72;;;8.58
73894;BMP280;62699;50.534;12.784;2023-06-14T04:12:55;96304.88;;;8.67
73894;BMP280;62699;50.534;12.784;2023-06-14T04:17:56;96308.69;;;8.55
73894;BMP280;62699;50.534;12.784;2023-06-14T04:22:57;96309.91;;;8.96
73894;BMP280;62699;50.534;12.784;2023-06-14T04:27:57;96321.69;;;12.20
73894;BMP280;62699;50.534;12.784;2023-06-14T04:32:57;96320.84;;;15.41
73894;BMP280;62699;50.534;12.784;2023-06-14T04:37:59;96325.94;;;17.27
73894;BMP280;62699;50.534;12.784;2023-06-14T04:43:00;96337.31;;;19.57
73894;BMP280;62699;50.534;12.784;2023-06-14T04:48:01;96328.47;;;20.16
73894;BMP280;62699;50.534;12.784;2023-06-14T04:53:01;96337.44;;;21.11
73894;BMP280;62699;50.534;12.784;2023-06-14T04:58:01;96350.22;;;22.37
73894;BMP280;62699;50.534;12.784;2023-06-14T05:03:03;96343.72;;;22.71
73894;BMP280;62699;50.534;12.784;2023-06-14T05:08:06;96349.16;;;23.80
73894;BMP280;62699;50.534;12.784;2023-06-14T05:13:08;96356.41;;;25.05
73894;BMP280;62699;50.534;12.784;2023-06-14T05:18:10;96351.69;;;25.88
73894;BMP280;62699;50.534;12.784;2023-06-14T05:23:11;96349.66;;;26.26
73894;BMP280;62699;50.534;12.784;2023-06-14T05:28:15;96353.53;;;24.16
73894;BMP280;62699;50.534;12.784;2023-06-14T05:33:16;96360.03;;;24.21
73894;BMP280;62699;50.534;12.784;2023-06-14T05:38:16;96363.97;;;25.51
73894;BMP280;62699;50.534;12.784;2023-06-14T05:43:16;96372.22;;;25.16
73894;BMP280;62699;50.534;12.784;2023-06-14T05:48:17;96374.31;;;28.35
73894;BMP280;62699;50.534;12.784;2023-06-14T05:53:17;96373.78;;;28.84
73894;BMP280;62699;50.534;12.784;2023-06-14T05:58:17;96363.78;;;27.07
73894;BMP280;62699;50.534;12.784;2023-06-14T06:03:18;96369.31;;;26.32
73894;BMP280;62699;50.534;12.784;2023-06-14T06:08:19;96373.72;;;26.12
73894;BMP280;62699;50.534;12.784;2023-06-14T06:13:19;96368.75;;;25.27
73894;BMP280;62699;50.534;12.784;2023-06-14T06:18:19;96364.38;;;26.67
73894;BMP280;62699;50.534;12.784;2023-06-14T06:23:20;96370.66;;;27.33
73894;BMP280;62699;50.534;12.784;2023-06-14T06:28:20;96366.34;;;27.85
73894;BMP280;62699;50.534;12.784;2023-06-14T06:33:21;96370.38;;;28.25
73894;BMP280;62699;50.534;12.784;2023-06-14T06:38:21;96377.53;;;28.74
73894;BMP280;62699;50.534;12.784;2023-06-14T06:43:22;96382.03;;;29.28
73894;BMP280;62699;50.534;12.784;2023-06-14T06:48:22;96377.22;;;28.98
73894;BMP280;62699;50.534;12.784;2023-06-14T06:53:22;96369.19;;;28.88
73894;BMP280;62699;50.534;12.784;2023-06-14T06:58:22;96373.44;;;28.75
73894;BMP280;62699;50.534;12.784;2023-06-14T07:03:23;96377.81;;;28.36
73894;BMP280;62699;50.534;12.784;2023-06-14T07:08:23;96385.41;;;29.58
73894;BMP280;62699;50.534;12.784;2023-06-14T07:13:23;96399.59;;;29.17
73894;BMP280;62699;50.534;12.784;2023-06-14T07:18:25;96403.81;;;29.67
73894;BMP280;62699;50.534;12.784;2023-06-14T07:23:27;96409.31;;;29.34
73894;BMP280;62699;50.534;12.784;2023-06-14T07:28:27;96404.28;;;27.69
73894;BMP280;62699;50.534;12.784;2023-06-14T07:33:27;96398.28;;;29.85
73894;BMP280;62699;50.534;12.784;2023-06-14T07:38:27;96396.78;;;27.98
73894;BMP280;62699;50.534;12.784;2023-06-14T07:43:29;96405.91;;;27.74
73894;BMP280;62699;50.534;12.784;2023-06-14T07:48:30;96405.53;;;28.81
73894;BMP280;62699;50.534;12.784;2023-06-14T07:53:31;96409.06;;;28.97
73894;BMP280;62699;50.534;12.784;2023-06-14T07:58:31;96423.59;;;27.14
73894;BMP280;62699;50.534;12.784;2023-06-14T08:03:32;96416.72;;;27.15
73894;BMP280;62699;50.534;12.784;2023-06-14T08:08:33;96403.16;;;26.94
73894;BMP280;62699;50.534;12.784;2023-06-14T08:13:35;96411.06;;;25.78
73894;BMP280;62699;50.534;12.784;2023-06-14T08:18:36;96407.13;;;25.46
73894;BMP280;62699;50.534;12.784;2023-06-14T08:23:37;96423.16;;;25.15
73894;BMP280;62699;50.534;12.784;2023-06-14T08:28:37;96412.63;;;25.58
73894;BMP280;62699;50.534;12.784;2023-06-14T08:33:37;96424.84;;;25.43
73894;BMP280;62699;50.534;12.784;2023-06-14T08:38:39;96420.22;;;24.47
73894;BMP280;62699;50.534;12.784;2023-06-14T08:43:39;96427.63;;;24.99
73894;BMP280;62699;50.534;12.784;2023-06-14T08:48:39;96426.66;;;24.61
73894;BMP280;62699;50.534;12.784;2023-06-14T08:53:40;96424.72;;;23.70
73894;BMP280;62699;50.534;12.784;2023-06-14T08:58:45;96427.72;;;23.83
73894;BMP280;62699;50.534;12.784;2023-06-14T09:03:48;96422.16;;;22.93
73894;BMP280;62699;50.534;12.784;2023-06-14T09:08:49;96421.38;;;23.81
73894;BMP280;62699;50.534;12.784;2023-06-14T09:13:50;96434.28;;;23.69
73894;BMP280;62699;50.534;12.784;2023-06-14T09:18:50;96424.16;;;23.12
73894;BMP280;62699;50.534;12.784;2023-06-14T09:23:50;96433.22;;;24.14
73894;BMP280;62699;50.534;12.784;2023-06-14T09:28:50;96428.63;;;23.26
73894;BMP280;62699;50.534;12.784;2023-06-14T09:33:51;96442.97;;;23.75
73894;BMP280;62699;50.534;12.784;2023-06-14T09:38:56;96443.50;;;23.42
73894;BMP280;62699;50.534;12.784;2023-06-14T09:43:58;96433.28;;;22.57
73894;BMP280;62699;50.534;12.784;2023-06-14T09:49:01;96435.56;;;22.32
73894;BMP280;62699;50.534;12.784;2023-06-14T09:54:03;96443.22;;;21.60
73894;BMP280;62699;50.534;12.784;2023-06-14T09:59:09;96438.63;;;22.83
73894;BMP280;62699;50.534;12.784;2023-06-14T10:04:11;96431.97;;;22.58
73894;BMP280;62699;50.534;12.784;2023-06-14T10:09:12;96429.19;;;23.34
73894;BMP280;62699;50.534;12.784;2023-06-14T10:14:12;96427.50;;;22.91
73894;BMP280;62699;50.534;12.784;2023-06-14T10:19:25;96433.84;;;22.84
73894;BMP280;62699;50.534;12.784;2023-06-14T10:24:37;96438.97;;;23.57
73894;BMP280;62699;50.534;12.784;2023-06-14T10:35:00;96443.72;;;23.96
73894;BMP280;62699;50.534;12.784;2023-06-14T10:40:02;96438.19;;;23.16
73894;BMP280;62699;50.534;12.784;2023-06-14T10:45:03;96433.56;;;22.80
73894;BMP280;62699;50.534;12.784;2023-06-14T10:50:08;96431.25;;;22.86
73894;BMP280;62699;50.534;12.784;2023-06-14T10:55:16;96428.00;;;22.13
73894;BMP280;62699;50.534;12.784;2023-06-14T11:00:20;96420.47;;;22.13
73894;BMP280;62699;50.534;12.784;2023-06-14T11:05:27;96425.91;;;22.04
73894;BMP280;62699;50.534;12.784;2023-06-14T11:10:39;96433.97;;;22.57
73894;BMP280;62699;50.534;12.784;2023-06-14T11:15:45;96431.94;;;22.29
73894;BMP280;62699;50.534;12.784;2023-06-14T11:20:47;96427.19;;;23.06
73894;BMP280;62699;50.534;12.784;2023-06-14T11:25:51;96424.88;;;23.31
73894;BMP280;62699;50.534;12.784;2023-06-14T11:31:03;96430.97;;;22.63
73894;BMP280;62699;50.534;12.784;2023-06-14T11:36:05;96438.69;;;22.18
73894;BMP280;62699;50.534;12.784;2023-06-14T11:41:08;96424.88;;;22.36
73894;BMP280;62699;50.534;12.784;2023-06-14T11:46:14;96431.97;;;22.58
73894;BMP280;62699;50.534;12.784;2023-06-14T11:51:24;96422.88;;;23.03
73894;BMP280;62699;50.534;12.784;2023-06-14T11:56:25;96421.59;;;22.95
73894;BMP280;62699;50.534;12.784;2023-06-14T12:01:26;96421.16;;;22.88
73894;BMP280;62699;50.534;12.784;2023-06-14T12:06:29;96422.19;;;21.99
73894;BMP280;62699;50.534;12.784;2023-06-14T12:11:36;96418.75;;;22.08
73894;BMP280;62699;50.534;12.784;2023-06-14T12:16:38;96417.31;;;22.17
73894;BMP280;62699;50.534;12.784;2023-06-14T12:21:40;96416.63;;;21.27
73894;BMP280;62699;50.534;12.784;2023-06-14T12:26:41;96413.66;;;22.70
73894;BMP280;62699;50.534;12.784;2023-06-14T12:31:42;96401.50;;;23.52
73894;BMP280;62699;50.534;12.784;2023-06-14T12:36:43;96406.16;;;23.49
73894;BMP280;62699;50.534;12.784;2023-06-14T12:41:46;96396.63;;;23.40
73894;BMP280;62699;50.534;12.784;2023-06-14T12:46:47;96403.13;;;23.76
73894;BMP280;62699;50.534;12.784;2023-06-14T12:51:47;96413.41;;;23.85
73894;BMP280;62699;50.534;12.784;2023-06-14T12:56:47;96408.94;;;24.01
73894;BMP280;62699;50.534;12.784;2023-06-14T13:01:47;96410.50;;;23.83
73894;BMP280;62699;50.534;12.784;2023-06-14T13:06:50;96402.19;;;23.12
73894;BMP280;62699;50.534;12.784;2023-06-14T13:11:50;96400.50;;;24.51
73894;BMP280;62699;50.534;12.784;2023-06-14T13:16:50;96401.53;;;24.67
73894;BMP280;62699;50.534;12.784;2023-06-14T13:21:51;96403.03;;;23.33
73894;BMP280;62699;50.534;12.784;2023-06-14T13:26:51;96406.25;;;22.44
73894;BMP280;62699;50.534;12.784;2023-06-14T13:31:52;96408.13;;;21.86
73894;BMP280;62699;50.534;12.784;2023-06-14T13:36:53;96410.00;;;21.83
73894;BMP280;62699;50.534;12.784;2023-06-14T13:41:55;96402.59;;;21.40
73894;BMP280;62699;50.534;12.784;2023-06-14T13:46:55;96403.81;;;22.38
73894;BMP280;62699;50.534;12.784;2023-06-14T13:51:55;96402.47;;;23.16
73894;BMP280;62699;50.534;12.784;2023-06-14T13:56:56;96417.38;;;23.63
73894;BMP280;62699;50.534;12.784;2023-06-14T14:01:56;96407.16;;;23.54
73894;BMP280;62699;50.534;12.784;2023-06-14T14:06:57;96420.28;;;22.76
73894;BMP280;62699;50.534;12.784;2023-06-14T14:11:58;96417.63;;;21.75
73894;BMP280;62699;50.534;12.784;2023-06-14T14:16:59;96417.91;;;20.99
73894;BMP280;62699;50.534;12.784;2023-06-14T14:22:00;96414.94;;;20.87
73894;BMP280;62699;50.534;12.784;2023-06-14T14:27:01;96410.22;;;21.14
73894;BMP280;62699;50.534;12.784;2023-06-14T14:32:02;96414.81;;;20.95
73894;BMP280;62699;50.534;12.784;2023-06-14T14:37:04;96409.47;;;21.58
73894;BMP280;62699;50.534;12.784;2023-06-14T14:42:04;96413.72;;;21.25
73894;BMP280;62699;50.534;12.784;2023-06-14T14:47:05;96418.94;;;21.03
73894;BMP280;62699;50.534;12.784;2023-06-14T14:52:07;96409.13;;;20.83
73894;BMP280;62699;50.534;12.784;2023-06-14T14:57:08;96426.41;;;20.69
73894;BMP280;62699;50.534;12.784;2023-06-14T15:02:08;96425.63;;;20.34
73894;BMP280;62699;50.534;12.784;2023-06-14T15:07:09;96425.69;;;20.26
73894;BMP280;62699;50.534;12.784;2023-06-14T15:12:10;96414.41;;;20.47
73894;BMP280;62699;50.534;12.784;2023-06-14T15:17:11;96416.22;;;20.69
73894;BMP280;62699;50.534;12.784;2023-06-14T15:22:11;96413.78;;;20.73
73894;BMP280;62699;50.534;12.784;2023-06-14T15:27:12;96402.53;;;20.86
73894;BMP280;62699;50.534;12.784;2023-06-14T15:32:12;96427.16;;;20.27
73894;BMP280;62699;50.534;12.784;2023-06-14T15:37:13;96423.84;;;19.87
73894;BMP280;62699;50.534;12.784;2023-06-14T15:42:13;96418.44;;;19.72
73894;BMP280;62699;50.534;12.784;2023-06-14T15:47:13;96426.72;;;19.57
73894;BMP280;62699;50.534;12.784;2023-06-14T15:52:14;96418.22;;;19.45
73894;BMP280;62699;50.534;12.784;2023-06-14T15:57:15;96419.72;;;19.31
73894;BMP280;62699;50.534;12.784;2023-06-14T16:02:15;96420.66;;;19.26
73894;BMP280;62699;50.534;12.784;2023-06-14T16:07:15;96417.25;;;19.58
73894;BMP280;62699;50.534;12.784;2023-06-14T16:12:16;96411.06;;;19.89
73894;BMP280;62699;50.534;12.784;2023-06-14T16:17:17;96404.31;;;20.32
73894;BMP280;62699;50.534;12.784;2023-06-14T16:22:19;96406.06;;;20.62
73894;BMP280;62699;50.534;12.784;2023-06-14T16:27:20;96412.97;;;20.97
73894;BMP280;62699;50.534;12.784;2023-06-14T16:32:20;96409.59;;;21.06
73894;BMP280;62699;50.534;12.784;2023-06-14T16:37:21;96405.41;;;20.88
73894;BMP280;62699;50.534;12.784;2023-06-14T16:42:22;96402.00;;;20.63
73894;BMP280;62699;50.534;12.784;2023-06-14T16:47:22;96408.69;;;20.52
73894;BMP280;62699;50.534;12.784;2023-06-14T16:52:22;96418.28;;;20.61
73894;BMP280;62699;50.534;12.784;2023-06-14T16:57:22;96426.72;;;20.73
73894;BMP280;62699;50.534;12.784;2023-06-14T17:02:23;96428.03;;;20.54
73894;BMP280;62699;50.534;12.784;2023-06-14T17:07:23;96434.94;;;20.31
73894;BMP280;62699;50.534;12.784;2023-06-14T17:12:23;96441.75;;;20.22
73894;BMP280;62699;50.534;12.784;2023-06-14T17:17:27;96441.06;;;19.97
73894;BMP280;62699;50.534;12.784;2023-06-14T17:22:28;96452.81;;;19.82
73894;BMP280;62699;50.534;12.784;2023-06-14T17:27:28;96450.09;;;19.75
73894;BMP280;62699;50.534;12.784;2023-06-14T17:32:28;96456.16;;;19.33
73894;BMP280;62699;50.534;12.784;2023-06-14T17:37:29;96462.56;;;19.13
73894;BMP280;62699;50.534;12.784;2023-06-14T17:42:30;96465.00;;;18.94
73894;BMP280;62699;50.534;12.784;2023-06-14T17:47:30;96469.53;;;18.69
73894;BMP280;62699;50.534;12.784;2023-06-14T17:52:30;96478.50;;;18.47
73894;BMP280;62699;50.534;12.784;2023-06-14T17:57:31;96481.75;;;18.38
73894;BMP280;62699;50.534;12.784;2023-06-14T18:02:31;96479.91;;;18.40
73894;BMP280;62699;50.534;12.784;2023-06-14T18:07:31;96487.56;;;18.34
73894;BMP280;62699;50.534;12.784;2023-06-14T18:12:32;96486.09;;;18.25
73894;BMP280;62699;50.534;12.784;2023-06-14T18:17:32;96486.44;;;18.14
73894;BMP280;62699;50.534;12.784;2023-06-14T18:22:33;96488.97;;;18.05
73894;BMP280;62699;50.534;12.784;2023-06-14T18:27:33;96497.63;;;17.88
73894;BMP280;62699;50.534;12.784;2023-06-14T18:32:33;96490.88;;;17.74
73894;BMP280;62699;50.534;12.784;2023-06-14T18:37:35;96507.34;;;17.61
73894;BMP280;62699;50.534;12.784;2023-06-14T18:42:35;96499.28;;;17.48
73894;BMP280;62699;50.534;12.784;2023-06-14T18:47:35;96494.09;;;17.29
73894;BMP280;62699;50.534;12.784;2023-06-14T18:52:36;96493.25;;;17.06
73894;BMP280;62699;50.534;12.784;2023-06-14T18:57:36;96507.00;;;16.79
73894;BMP280;62699;50.534;12.784;2023-06-14T19:02:39;96502.38;;;16.46
73894;BMP280;62699;50.534;12.784;2023-06-14T19:07:41;96508.97;;;16.17
73894;BMP280;62699;50.534;12.784;2023-06-14T19:12:41;96527.03;;;15.94
73894;BMP280;62699;50.534;12.784;2023-06-14T19:17:54;96531.44;;;15.70
73894;BMP280;62699;50.534;12.784;2023-06-14T19:22:56;96528.50;;;15.42
73894;BMP280;62699;50.534;12.784;2023-06-14T19:27:57;96532.66;;;15.30
73894;BMP280;62699;50.534;12.784;2023-06-14T19:32:57;96531.31;;;15.23
73894;BMP280;62699;50.534;12.784;2023-06-14T19:37:58;96537.25;;;15.09
73894;BMP280;62699;50.534;12.784;2023-06-14T19:42:58;96541.88;;;14.82
73894;BMP280;62699;50.534;12.784;2023-06-14T19:48:00;96539.84;;;14.69
73894;BMP280;62699;50.534;12.784;2023-06-14T19:53:00;96545.81;;;14.49
73894;BMP280;62699;50.534;12.784;2023-06-14T19:58:01;96554.97;;;14.27
73894;BMP280;62699;50.534;12.784;2023-06-14T20:03:02;96546.84;;;14.09
73894;BMP280;62699;50.534;12.784;2023-06-14T20:08:03;96549.81;;;13.87
73894;BMP280;62699;50.534;12.784;2023-06-14T20:13:05;96554.97;;;13.66
73894;BMP280;62699;50.534;12.784;2023-06-14T20:18:06;96555.28;;;13.57
73894;BMP280;62699;50.534;12.784;2023-06-14T20:23:07;96561.06;;;13.48
73894;BMP280;62699;50.534;12.784;2023-06-14T20:28:09;96559.06;;;13.24
73894;BMP280;62699;50.534;12.784;2023-06-14T20:33:09;96553.53;;;13.11
73894;BMP280;62699;50.534;12.784;2023-06-14T20:38:10;96557.38;;;12.85
73894;BMP280;62699;50.534;12.784;2023-06-14T20:43:10;96554.28;;;12.76
73894;BMP280;62699;50.534;12.784;2023-06-14T20:48:12;96562.19;;;12.68
73894;BMP280;62699;50.534;12.784;2023-06-14T20:53:12;96567.88;;;12.59
73894;BMP280;62699;50.534;12.784;2023-06-14T20:58:12;96558.81;;;12.51
73894;BMP280;62699;50.534;12.784;2023-06-14T21:03:13;96574.13;;;12.37
73894;BMP280;62699;50.534;12.784;2023-06-14T21:08:13;96574.44;;;12.28
73894;BMP280;62699;50.534;12.784;2023-06-14T21:13:14;96576.16;;;12.20
73894;BMP280;62699;50.534;12.784;2023-06-14T21:18:15;96575.94;;;12.18
73894;BMP280;62699;50.534;12.784;2023-06-14T21:23:15;96573.78;;;12.00
73894;BMP280;62699;50.534;12.784;2023-06-14T21:28:19;96580.44;;;11.93
73894;BMP280;62699;50.534;12.784;2023-06-14T21:33:19;96576.56;;;11.72
73894;BMP280;62699;50.534;12.784;2023-06-14T21:38:20;96581.50;;;11.57
73894;BMP280;62699;50.534;12.784;2023-06-14T21:43:20;96579.53;;;11.52
73894;BMP280;62699;50.534;12.784;2023-06-14T21:48:20;96578.81;;;11.46
73894;BMP280;62699;50.534;12.784;2023-06-14T21:53:21;96582.50;;;11.37
73894;BMP280;62699;50.534;12.784;2023-06-14T21:58:21;96586.19;;;11.18
73894;BMP280;62699;50.534;12.784;2023-06-14T22:03:21;96581.50;;;11.07
73894;BMP280;62699;50.534;12.784;2023-06-14T22:08:22;96573.66;;;11.04
73894;BMP280;62699;50.534;12.784;2023-06-14T22:13:22;96569.72;;;10.99
73894;BMP280;62699;50.534;12.784;2023-06-14T22:18:23;96577.06;;;10.93
73894;BMP280;62699;50.534;12.784;2023-06-14T22:23:23;96571.41;;;10.80
73894;BMP280;62699;50.534;12.784;2023-06-14T22:28:25;96568.47;;;10.78
73894;BMP280;62699;50.534;12.784;2023-06-14T22:33:26;96570.66;;;10.74
73894;BMP280;62699;50.534;12.784;2023-06-14T22:38:26;96578.75;;;10.74
73894;BMP280;62699;50.534;12.784;2023-06-14T22:43:26;96587.31;;;10.72
73894;BMP280;62699;50.534;12.784;2023-06-14T22:48:27;96591.47;;;10.62
73894;BMP280;62699;50.534;12.784;2023-06-14T22:53:27;96574.78;;;10.52
73894;BMP280;62699;50.534;12.784;2023-06-14T22:58:28;96584.31;;;10.48
73894;BMP280;62699;50.534;12.784;2023-06-14T23:03:30;96581.84;;;10.44
73894;BMP280;62699;50.534;12.784;2023-06-14T23:08:30;96579.63;;;10.37
73894;BMP280;62699;50.534;12.784;2023-06-14T23:13:31;96581.78;;;10.28
73894;BMP280;62699;50.534;12.784;2023-06-14T23:18:31;96581.78;;;10.28
73894;BMP280;62699;50.534;12.784;2023-06-14T23:23:32;96574.19;;;10.26
73894;BMP280;62699;50.534;12.784;2023-06-14T23:28:37;96583.19;;;10.18
73894;BMP280;62699;50.534;12.784;2023-06-14T23:33:40;96569.47;;;10.10
73894;BMP280;62699;50.534;12.784;2023-06-14T23:38:43;96566.78;;;10.04
73894;BMP280;62699;50.534;12.784;2023-06-14T23:43:47;96566.50;;;10.02
73894;BMP280;62699;50.534;12.784;2023-06-14T23:48:50;96563.28;;;9.93
73894;BMP280;62699;50.534;12.784;2023-06-14T23:53:50;96561.81;;;9.92
73894;BMP280;62699;50.534;12.784;2023-06-14T23:58:52;96557.66;;;9.96
